• Join FlightAware (Why Join?)
  • Login
  • US Flag 
07:07PM EST


 

Airport Tracker/Info


-or-


 

Live Flight TrackerFlight Track Log ✈ PDT4363 ✈ 20-Apr-2013 ✈ KPHL - KROA

Flight Track Log - Related Links

Times and Time Zones

All times are in EDT time to prevent confusion due to time zone crossing. See the PDT4363 flight status page for this flight to view local times or setup timezone preferences in your user account.

Time Position Orientation Groundspeed Altitude Reporting Facility
EDT Latitude Longitude Course Direction KTS MPH feet Rate Location/Type
06:19PM 39.8833 -75.2333 258° West 107 123 700  Level Philadelphia TRACON
06:20PM 39.8967 -75.2619 301° West 114 131 1,500 1,560 Climbing FAA TRACON SMA TRACON (SMA)
06:20PM 39.9008 -75.2772 290° West 120 138 2,100 1,620 Climbing FAA TRACON SMA TRACON (SMA)
06:21PM 39.9053 -75.2919 291° West 136 157 2,600 1,500 Climbing FAA TRACON SMA TRACON (SMA)
06:21PM 39.9097 -75.3106 287° West 138 159 3,100 1,500 Climbing FAA TRACON SMA TRACON (SMA)
06:21PM 39.9131 -75.3256 286° West 142 163 3,600 1,500 Climbing FAA TRACON SMA TRACON (SMA)
06:22PM 39.8500 -75.5131 270° West  Level FlightAware Approximate
06:22PM 39.9167 -75.3419 286° West 151 174 4,100  Level FAA TRACON SMA TRACON (SMA)
06:22PM 39.9219 -75.3636 288° West 161 185 4,600 1,500 Climbing FAA TRACON SMA TRACON (SMA)
06:22PM 39.9264 -75.3808 289° West 161 185 5,100 1,320 Climbing FAA TRACON SMA TRACON (SMA)
06:23PM 39.8476 -75.6072 247° West  Level FlightAware Approximate
06:23PM 39.9306 -75.3972 288° West 160 184 5,500  Level FAA TRACON SMA TRACON (SMA)
06:23PM 39.9364 -75.4189 289° West 161 185 5,900 600 Climbing FAA TRACON SMA TRACON (SMA)
06:23PM 39.9422 -75.4383 291° West 185 213 5,900  Level FAA TRACON SMA TRACON (SMA)
06:24PM 39.8333 -75.6981 270° West  Level FlightAware Approximate
06:24PM 39.9450 -75.4606 279° West 205 236 5,900  Level FAA TRACON SMA TRACON (SMA)
06:24PM 39.9403 -75.4892 258° West 211 243 5,900  Level FAA TRACON SMA TRACON (SMA)
06:24PM 39.9372 -75.5119 260° West 212 244 5,900  Level FAA TRACON SMA TRACON (SMA)
06:25PM 39.8318 -75.7926 258° West  Level FlightAware Approximate
06:25PM 39.9319 -75.5358 254° West 218 251 5,900  Level FAA TRACON SMA TRACON (SMA)
06:25PM 39.9247 -75.5650 252° West 222 255 5,900  Level FAA TRACON SMA TRACON (SMA)
06:25PM 39.9197 -75.5908 256° West 225 259 5,900  Level FAA TRACON SMA TRACON (SMA)
06:26PM 39.9142 -75.6147 253° West 225 259 5,900  Level FAA TRACON SMA TRACON (SMA)
06:26PM 39.9008 -75.6422 238° Southwest 240 276 5,900  Level FAA TRACON SMA TRACON (SMA)
06:26PM 39.8908 -75.6639 239° Southwest 231 266 5,900 120 Level FAA TRACON SMA TRACON (SMA)
06:27PM 39.8806 -75.6861 239° Southwest 233 268 6,000 720 Climbing FAA TRACON SMA TRACON (SMA)
06:27PM 39.8686 -75.7136 241° Southwest 227 261 6,400 1,020 Climbing FAA TRACON SMA TRACON (SMA)
06:27PM 39.8603 -75.7347 243° Southwest 217 250 6,700 720 Climbing FAA TRACON SMA TRACON (SMA)
06:28PM 39.8531 -75.7556 246° West 208 239 6,900 900 Climbing FAA TRACON SMA TRACON (SMA)
06:28PM 39.8444 -75.7806 246° West 203 234 7,300 1,020 Climbing FAA TRACON SMA TRACON (SMA)
06:28PM 39.8378 -75.8014 247° West 201 231 7,600 1,020 Climbing FAA TRACON SMA TRACON (SMA)
06:29PM 39.8350 -75.8228 260° West 202 232 8,000 900 Climbing FAA TRACON SMA TRACON (SMA)
06:29PM 39.8339 -75.8503 267° West 196 226 8,200 420 Climbing FAA TRACON SMA TRACON (SMA)
06:29PM 39.8306 -75.8722 259° West 201 231 8,300 420 Climbing FAA TRACON SMA TRACON (SMA)
06:30PM 39.8272 -75.8942 259° West 201 231 8,500 600 Climbing FAA TRACON SMA TRACON (SMA)
06:30PM 39.8236 -75.9217 260° West 201 231 8,700 420 Climbing FAA TRACON SMA TRACON (SMA)
06:30PM 39.8219 -75.9433 264° West 201 231 8,800 420 Climbing FAA TRACON SMA TRACON (SMA)
06:31PM 39.8203 -75.9664 265° West 200 230 9,000 600 Climbing FAA TRACON SMA TRACON (SMA)
06:31PM 39.8181 -75.9939 264° West 200 230 9,200 600 Climbing FAA TRACON SMA TRACON (SMA)
06:31PM 39.8164 -76.0161 264° West 200 230 9,400 720 Climbing FAA TRACON SMA TRACON (SMA)
06:32PM 39.8156 -76.0375 267° West 197 227 9,700 1,020 Climbing FAA TRACON SMA TRACON (SMA)
06:32PM 39.8136 -76.0636 264° West 191 220 10,100 1,020 Climbing FAA TRACON SMA TRACON (SMA)
06:32PM 39.8133 -76.0833 269° West 188 216 10,400 900 Climbing FAA TRACON SMA TRACON (SMA)
06:33PM 39.8128 -76.1039 268° West 185 213 10,700 1,020 Climbing FAA TRACON SMA TRACON (SMA)
06:33PM 39.8100 -76.1231 259° West 178 205 11,100 1,200 Climbing FAA TRACON SMA TRACON (SMA)
06:33PM 39.8097 -76.1469 269° West 173 199 11,500 1,020 Climbing FAA TRACON SMA TRACON (SMA)
06:34PM 39.8069 -76.1656 259° West 171 197 11,800 1,020 Climbing FAA TRACON SMA TRACON (SMA)
06:34PM 39.8036 -76.1878 259° West 171 197 12,200 1,020 Climbing FAA TRACON SMA TRACON (SMA)
06:34PM 39.7947 -76.2044 235° Southwest 179 206 12,500 900 Climbing FAA TRACON SMA TRACON (SMA)
06:35PM 39.7853 -76.2194 231° Southwest 169 194 12,800 900 Climbing FAA TRACON SMA TRACON (SMA)
06:35PM 39.7772 -76.2386 241° Southwest 166 191 13,200 1,020 Climbing FAA TRACON SMA TRACON (SMA)
06:35PM 39.7689 -76.2600 243° Southwest 165 190 13,600 840 Climbing FAA TRACON SMA TRACON (SMA)
06:36PM 39.7603 -76.2836 245° Southwest 165 190 14,000 300 Climbing FAA TRACON SMA TRACON (SMA)
06:37PM 39.7603 -76.2836 201° Southwest 165 190 14,000 780 Level FAA TRACON SMA TRACON (SMA)
06:38PM 39.7175 -76.4197 248° West 173 199 15,900 840 Climbing New York Center
06:39PM 39.6942 -76.4744 241° Southwest 173 199 16,400 480 Climbing New York Center
06:40PM 39.6664 -76.5289 236° Southwest 179 206 16,900 480 Climbing New York Center
06:41PM 39.6428 -76.5864 242° Southwest 179 206 17,400 480 Climbing New York Center
06:42PM 39.6233 -76.6442 246° West 179 206 17,900 300 Climbing New York Center
06:43PM 39.6017 -76.7017 244° Southwest 174 200 18,000  Climbing New York Center
06:44PM 39.5778 -76.7589 242° Southwest 174 200 18,000  Level New York Center
06:45PM 39.5578 -76.8219 248° West 185 213 18,000  Level New York Center
06:46PM 39.5358 -76.8844 246° West 191 220 18,000  Level New York Center
06:47PM 39.5144 -76.9339 241° Southwest 191 220 18,000  Level Washington Center
06:48PM 39.4847 -76.9925 237° Southwest 196 226 18,000  Level Washington Center
06:49PM 39.4444 -77.0400 222° Southwest 201 231 18,000  Level Washington Center
06:50PM 39.4044 -77.0875 223° Southwest 201 231 18,000  Level Washington Center
06:51PM 39.3683 -77.1378 227° Southwest 201 231 18,000  Level Washington Center
06:52PM 39.3322 -77.1908 229° Southwest 196 226 18,000  Level Washington Center
06:53PM 39.2939 -77.2408 225° Southwest 196 226 18,000  Level Washington Center
06:54PM 39.2536 -77.2883 222° Southwest 196 226 18,000  Level Washington Center
06:55PM 39.2092 -77.3328 218° Southwest 201 231 18,000  Level Washington Center
06:56PM 39.1650 -77.3719 215° Southwest 206 237 18,000  Level Washington Center
06:57PM 39.1183 -77.4161 216° Southwest 206 237 18,000  Level Washington Center
06:58PM 39.0719 -77.4550 213° Southwest 206 237 18,000  Level Washington Center
06:59PM 39.0256 -77.4967 215° Southwest 206 237 18,000  Level Washington Center
07:00PM 38.9789 -77.5408 216° Southwest 206 237 18,000  Level Washington Center
07:01PM 38.9303 -77.5875 217° Southwest 206 237 18,000  Level Washington Center
07:02PM 38.8900 -77.6264 217° Southwest 201 231 18,000  Level Washington Center
07:03PM 38.8453 -77.6786 222° Southwest 201 231 18,000  Level Washington Center
07:04PM 38.7986 -77.7253 218° Southwest 212 244 18,000  Level Washington Center
07:05PM 38.7561 -77.7719 221° Southwest 212 244 18,000  Level Washington Center
07:06PM 38.7094 -77.8183 218° Southwest 212 244 18,000  Level Washington Center
07:07PM 38.6608 -77.8542 210° Southwest 212 244 18,000  Level Washington Center
07:08PM 38.6122 -77.8900 210° Southwest 212 244 18,000  Level Washington Center
07:09PM 38.5797 -77.9472 234° Southwest 206 237 18,000  Level Washington Center
07:10PM 38.5494 -78.0075 237° Southwest 201 231 18,000  Level Washington Center
07:11PM 38.5231 -78.0678 241° Southwest 206 237 18,000  Level Washington Center
07:12PM 38.4906 -78.1275 235° Southwest 206 237 18,000  Level Washington Center
07:13PM 38.4581 -78.1847 234° Southwest 206 237 18,000  Level Washington Center
07:14PM 38.4236 -78.2392 231° Southwest 206 237 18,000  Level Washington Center
07:15PM 38.3889 -78.2936 231° Southwest 206 237 18,000  Level Washington Center
07:16PM 38.3628 -78.3431 236° Southwest 206 237 18,000  Level Washington Center
07:17PM 38.3236 -78.4103 233° Southwest 206 237 18,000  Level Washington Center
07:18PM 38.2911 -78.4700 235° Southwest 206 237 18,000  Level Washington Center
07:19PM 38.2561 -78.5267 232° Southwest 211 243 18,000  Level Washington Center
07:20PM 38.2236 -78.5836 234° Southwest 211 243 18,000  Level Washington Center
07:21PM 38.1847 -78.6375 227° Southwest 211 243 18,000 -120 Level Washington Center
07:22PM 38.1458 -78.6942 229° Southwest 211 243 17,800 -300 Descending Washington Center
07:23PM 38.1086 -78.7533 231° Southwest 211 243 17,500 -420 Descending Washington Center
07:24PM 38.0758 -78.8125 235° Southwest 218 251 17,000 -480 Descending Washington Center
07:25PM 38.0406 -78.8797 236° Southwest 229 264 16,600 -480 Descending Washington Center
07:26PM 38.0033 -78.9439 234° Southwest 229 264 16,100 -540 Descending Washington Center
07:27PM 37.9661 -79.0081 234° Southwest 229 264 15,600 -600 Descending Washington Center
07:28PM 37.9225 -79.0772 231° Southwest 235 270 15,000 -600 Descending Washington Center
07:29PM 37.8831 -79.1411 232° Southwest 235 270 14,400 -840 Descending Washington Center
07:30PM 37.8456 -79.2078 235° Southwest 240 276 13,400 -1,020 Descending Washington Center
07:31PM 37.8103 -79.2692 234° Southwest 240 276 12,400 -960 Descending Washington Center
07:32PM 37.7686 -79.3353 231° Southwest 245 282 11,500 -780 Descending Washington Center
07:33PM 37.7247 -79.4042 231° Southwest 245 282 10,900 -780 Descending Washington Center
07:34PM 37.6808 -79.4728 231° Southwest 240 276 10,000 -900 Descending Washington Center
07:35PM 37.6372 -79.5283 225° Southwest 240 276 9,100 -720 Descending Washington Center
07:36PM 37.5892 -79.5992 229° Southwest 246 283 8,600 -600 Descending Washington Center
07:37PM 37.5561 -79.6472 229° Southwest 230 265 7,900 -900 Descending Washington Center
07:38PM 37.5167 -79.7000 227° Southwest 204 235 6,800 -1,140 Descending Washington Center
07:39PM 37.4794 -79.7531 229° Southwest 204 235 5,700 -1,020 Descending Washington Center
07:40PM 37.4464 -79.8036 231° Southwest 204 235 4,800 -960 Descending Washington Center